Time;durP1;ratioP1;P1;durP2;ratioP2;P2;SDS_P1;SDS_P2;PMS_P1;PMS_P2;Temp;Humidity;BMP_temperature;BMP_pressure;BME280_temperature;BME280_humidity;BME280_pressure;Samples;Min_cycle;Max_cycle;Signal;HPM_P1;HPM_P2
2023/03/27 00:01:29;;;;;;;;;;;3.70;99.90;;;;;;4942838;29;19922;-80
2023/03/27 00:03:56;;;;;;;;;;;3.60;99.90;;;;;;4957290;29;19927;-81
2023/03/27 00:06:23;;;;;;;;;;;3.60;99.90;;;;;;4942803;28;20293;-79
2023/03/27 00:08:50;;;;;;;;;;;3.60;99.90;;;;;;4943600;29;19922;-79
2023/03/27 00:11:18;;;;;;;;;;;3.50;99.90;;;;;;4939147;29;19930;-77
2023/03/27 00:13:45;;;;;;;;;;;3.50;99.90;;;;;;4937325;29;20004;-77
2023/03/27 00:16:12;;;;;;;;;;;3.50;99.90;;;;;;4939204;29;19974;-78
2023/03/27 00:18:41;;;;;;;;;;;3.40;99.90;;;;;;4954178;28;19926;-79
2023/03/27 00:21:08;;;;;;;;;;;3.40;99.90;;;;;;4943296;29;20405;-78
2023/03/27 00:23:35;;;;;;;;;;;3.40;99.90;;;;;;4937831;29;19926;-79
2023/03/27 00:28:29;;;;;;;;;;;3.30;99.90;;;;;;4927608;29;19930;-76
2023/03/27 00:30:57;;;;;;;;;;;3.30;99.90;;;;;;4930080;29;19970;-76
2023/03/27 00:33:26;;;;;;;;;;;3.20;99.90;;;;;;4908971;29;19926;-76
2023/03/27 00:35:55;;;;;;;;;;;3.20;99.90;;;;;;4930555;29;19990;-76
2023/03/27 00:38:21;;;;;;;;;;;3.20;99.90;;;;;;4912302;29;19926;-75
2023/03/27 00:40:49;;;;;;;;;;;3.20;99.90;;;;;;4970769;23;19933;-76
2023/03/27 00:43:20;;;;;;;;;;;3.20;99.90;;;;;;4961342;28;20051;-79
2023/03/27 00:45:47;;;;;;;;;;;3.30;99.90;;;;;;4960312;28;19922;-79
2023/03/27 00:48:15;;;;;;;;;;;3.30;99.90;;;;;;4955319;29;19922;-76
2023/03/27 00:50:43;;;;;;;;;;;3.20;99.90;;;;;;4939887;29;20016;-78
2023/03/27 00:53:13;;;;;;;;;;;3.20;99.90;;;;;;4954242;29;19927;-79
2023/03/27 00:55:41;;;;;;;;;;;3.20;99.90;;;;;;4974470;28;19933;-77
2023/03/27 00:58:11;;;;;;;;;;;3.20;99.90;;;;;;4947545;29;19927;-76
2023/03/27 01:00:38;;;;;;;;;;;3.20;99.90;;;;;;4945406;28;19937;-79
2023/03/27 01:03:06;;;;;;;;;;;3.10;99.90;;;;;;4946724;28;20402;-78
2023/03/27 01:05:34;;;;;;;;;;;3.10;99.90;;;;;;4955695;28;19926;-78
2023/03/27 01:08:02;;;;;;;;;;;3.10;99.90;;;;;;4956671;28;20372;-77
2023/03/27 01:10:35;;;;;;;;;;;3.00;99.90;;;;;;4958909;28;19969;-78
2023/03/27 01:13:08;;;;;;;;;;;3.00;99.90;;;;;;4952616;29;20025;-78
2023/03/27 01:15:36;;;;;;;;;;;3.00;99.90;;;;;;4948225;29;19927;-78
2023/03/27 01:18:10;;;;;;;;;;;3.00;99.90;;;;;;4937522;29;19937;-79
2023/03/27 01:20:51;;;;;;;;;;;3.00;99.90;;;;;;4939685;29;19977;-79
2023/03/27 01:23:36;;;;;;;;;;;3.00;99.90;;;;;;4938294;28;19934;-79
2023/03/27 01:26:10;;;;;;;;;;;3.10;99.90;;;;;;4942090;28;19957;-78
2023/03/27 01:28:45;;;;;;;;;;;3.20;99.90;;;;;;4943782;29;19923;-79
2023/03/27 01:31:21;;;;;;;;;;;3.30;99.90;;;;;;4952589;29;19962;-78
2023/03/27 01:33:58;;;;;;;;;;;3.40;99.90;;;;;;4936288;29;19993;-77
2023/03/27 01:36:34;;;;;;;;;;;3.50;99.90;;;;;;4916899;29;20010;-77
2023/03/27 01:39:27;;;;;;;;;;;3.50;99.90;;;;;;4952086;29;19934;-78
2023/03/27 01:41:56;;;;;;;;;;;3.50;99.90;;;;;;4953996;29;19929;-78
2023/03/27 01:44:30;;;;;;;;;;;3.40;99.90;;;;;;4954021;29;19937;-77
2023/03/27 01:47:00;;;;;;;;;;;3.40;99.90;;;;;;4953987;29;19926;-77
2023/03/27 01:49:28;;;;;;;;;;;3.30;99.90;;;;;;4953181;29;19933;-77
2023/03/27 01:51:57;;;;;;;;;;;3.30;99.90;;;;;;4953471;29;19937;-76
2023/03/27 01:54:28;;;;;;;;;;;3.20;99.90;;;;;;4952720;29;19922;-77
2023/03/27 01:57:00;;;;;;;;;;;3.20;99.90;;;;;;4920590;29;19949;-77
2023/03/27 01:59:28;;;;;;;;;;;3.10;99.90;;;;;;4923610;29;19930;-77
2023/03/27 02:01:58;;;;;;;;;;;3.10;99.90;;;;;;4969954;28;19925;-78
2023/03/27 02:04:28;;;;;;;;;;;3.00;99.90;;;;;;4951858;29;19926;-78
2023/03/27 02:06:59;;;;;;;;;;;3.00;99.90;;;;;;4937878;29;19950;-76
2023/03/27 02:09:32;;;;;;;;;;;3.00;99.90;;;;;;4962295;28;20025;-78
2023/03/27 02:12:00;;;;;;;;;;;2.90;99.90;;;;;;4962909;28;19922;-75
2023/03/27 02:14:29;;;;;;;;;;;2.90;99.90;;;;;;4950541;28;19932;-77
2023/03/27 02:16:58;;;;;;;;;;;2.80;99.90;;;;;;4956341;28;19930;-76
2023/03/27 02:19:32;;;;;;;;;;;2.80;99.90;;;;;;4957690;28;19961;-77
2023/03/27 02:21:59;;;;;;;;;;;2.80;99.90;;;;;;4975418;28;19980;-79
2023/03/27 02:24:27;;;;;;;;;;;2.70;99.90;;;;;;4952520;28;20147;-77
2023/03/27 02:27:00;;;;;;;;;;;2.70;99.90;;;;;;4950949;29;19938;-76
2023/03/27 02:29:36;;;;;;;;;;;2.70;99.90;;;;;;4946399;28;20398;-77
2023/03/27 02:32:10;;;;;;;;;;;2.70;99.90;;;;;;4906416;29;19928;-75
2023/03/27 02:34:48;;;;;;;;;;;2.60;99.90;;;;;;4939647;29;20012;-75
2023/03/27 02:37:20;;;;;;;;;;;2.60;99.90;;;;;;4953427;28;19933;-75
2023/03/27 02:40:13;;;;;;;;;;;2.60;99.90;;;;;;4959927;28;20012;-77
2023/03/27 02:42:47;;;;;;;;;;;2.60;99.90;;;;;;4942198;29;20312;-77
2023/03/27 02:45:20;;;;;;;;;;;2.60;99.90;;;;;;4936068;28;20017;-78
2023/03/27 02:47:49;;;;;;;;;;;2.50;99.90;;;;;;4945695;28;19938;-76
2023/03/27 02:50:18;;;;;;;;;;;2.50;99.90;;;;;;4949143;28;19926;-77
2023/03/27 02:52:51;;;;;;;;;;;2.50;99.90;;;;;;4944075;28;19930;-75
2023/03/27 02:55:21;;;;;;;;;;;2.40;99.90;;;;;;4944619;28;19986;-76
2023/03/27 02:57:50;;;;;;;;;;;2.40;99.90;;;;;;4941221;28;19949;-80
2023/03/27 03:00:40;;;;;;;;;;;2.40;99.90;;;;;;4959741;29;19922;-80
2023/03/27 03:03:34;;;;;;;;;;;2.30;99.90;;;;;;4957762;29;19923;-81
2023/03/27 03:06:10;;;;;;;;;;;2.40;99.90;;;;;;4943147;29;19997;-80
2023/03/27 03:08:38;;;;;;;;;;;2.20;99.90;;;;;;4943391;29;19926;-80
2023/03/27 03:11:09;;;;;;;;;;;2.20;99.90;;;;;;4944909;29;20029;-81
2023/03/27 03:13:38;;;;;;;;;;;2.20;99.90;;;;;;4944827;29;19937;-81
2023/03/27 03:16:05;;;;;;;;;;;2.20;99.90;;;;;;4945235;29;19922;-82
2023/03/27 03:18:33;;;;;;;;;;;2.10;99.90;;;;;;4944696;29;19977;-81
2023/03/27 03:21:00;;;;;;;;;;;2.10;99.90;;;;;;4944318;29;19930;-82
2023/03/27 03:23:27;;;;;;;;;;;2.10;99.90;;;;;;4945245;29;20020;-83
2023/03/27 03:25:55;;;;;;;;;;;2.10;99.90;;;;;;4961329;29;19970;-81
2023/03/27 03:28:25;;;;;;;;;;;2.10;99.90;;;;;;4943974;29;19922;-81
2023/03/27 03:30:52;;;;;;;;;;;2.00;99.90;;;;;;4943221;29;19926;-84
2023/03/27 03:33:21;;;;;;;;;;;2.10;99.90;;;;;;4961146;29;19926;-82
2023/03/27 03:35:48;;;;;;;;;;;2.10;99.90;;;;;;4959343;29;19926;-81
2023/03/27 03:38:25;;;;;;;;;;;2.00;99.90;;;;;;4958143;29;19911;-81
2023/03/27 03:40:53;;;;;;;;;;;2.00;99.90;;;;;;4960512;28;19960;-80
2023/03/27 03:43:21;;;;;;;;;;;2.00;99.90;;;;;;4961663;29;19934;-85
2023/03/27 03:45:49;;;;;;;;;;;2.00;99.90;;;;;;4963820;29;20002;-85
2023/03/27 03:48:18;;;;;;;;;;;2.00;99.90;;;;;;4966254;28;20410;-82
2023/03/27 03:50:45;;;;;;;;;;;2.00;99.90;;;;;;4982377;28;19966;-83
2023/03/27 03:53:13;;;;;;;;;;;2.00;99.90;;;;;;4966343;28;19969;-82
2023/03/27 03:55:40;;;;;;;;;;;2.00;99.90;;;;;;4959373;29;19969;-82
2023/03/27 03:58:08;;;;;;;;;;;2.00;99.90;;;;;;4957361;28;19927;-88
2023/03/27 04:00:37;;;;;;;;;;;2.00;99.90;;;;;;4952757;29;20001;-88
2023/03/27 04:03:09;;;;;;;;;;;2.00;99.90;;;;;;4945874;29;19996;-82
2023/03/27 04:05:36;;;;;;;;;;;2.00;99.90;;;;;;4949395;28;19926;-83
2023/03/27 04:08:06;;;;;;;;;;;2.00;99.90;;;;;;4966452;28;19980;-82
2023/03/27 04:10:33;;;;;;;;;;;2.00;99.90;;;;;;4977058;28;19981;-82
2023/03/27 04:13:03;;;;;;;;;;;2.00;99.90;;;;;;4951668;29;19945;-84
2023/03/27 04:15:33;;;;;;;;;;;2.00;99.90;;;;;;4960925;28;19985;-82
2023/03/27 04:18:29;;;;;;;;;;;2.00;99.90;;;;;;4965220;28;19910;-81
2023/03/27 04:21:01;;;;;;;;;;;2.00;99.90;;;;;;4964328;28;20301;-80
2023/03/27 04:23:30;;;;;;;;;;;2.00;99.90;;;;;;4963860;28;19933;-82
2023/03/27 04:26:00;;;;;;;;;;;2.10;99.90;;;;;;4965830;28;19922;-81
2023/03/27 04:28:36;;;;;;;;;;;2.10;99.90;;;;;;4961613;29;19929;-81
2023/03/27 04:31:22;;;;;;;;;;;2.10;99.90;;;;;;4961817;29;19994;-83
2023/03/27 04:34:21;;;;;;;;;;;2.20;99.90;;;;;;4909689;29;19923;-80
2023/03/27 04:37:10;;;;;;;;;;;2.10;99.90;;;;;;4949250;28;19929;-79
2023/03/27 04:39:41;;;;;;;;;;;2.10;99.90;;;;;;4954884;28;19922;-82
2023/03/27 04:42:09;;;;;;;;;;;2.10;99.90;;;;;;4942965;29;20071;-81
2023/03/27 04:44:36;;;;;;;;;;;2.10;99.90;;;;;;4942050;29;19926;-81
2023/03/27 04:47:03;;;;;;;;;;;2.10;99.90;;;;;;4959119;29;19926;-79
2023/03/27 04:49:37;;;;;;;;;;;2.10;99.90;;;;;;4966065;28;20016;-79
2023/03/27 04:52:13;;;;;;;;;;;2.10;99.90;;;;;;4958447;28;19957;-79
2023/03/27 04:54:40;;;;;;;;;;;2.10;99.90;;;;;;4952686;29;19926;-79
2023/03/27 04:57:08;;;;;;;;;;;2.10;99.90;;;;;;4956920;28;20337;-78
2023/03/27 04:59:36;;;;;;;;;;;2.10;99.90;;;;;;4946112;28;20330;-80
2023/03/27 05:02:21;;;;;;;;;;;2.10;99.90;;;;;;4963582;28;20012;-81
2023/03/27 05:05:00;;;;;;;;;;;2.20;99.90;;;;;;4948871;29;19926;-82
2023/03/27 05:07:33;;;;;;;;;;;2.30;99.90;;;;;;4955479;29;19922;-80
2023/03/27 05:10:02;;;;;;;;;;;2.40;99.90;;;;;;4950072;29;19922;-82
2023/03/27 05:12:29;;;;;;;;;;;2.40;99.90;;;;;;4940618;29;19957;-82
2023/03/27 05:15:04;;;;;;;;;;;2.50;99.90;;;;;;4939808;29;19931;-81
2023/03/27 05:17:39;;;;;;;;;;;2.50;99.90;;;;;;4940115;29;19966;-82
2023/03/27 05:20:11;;;;;;;;;;;2.60;99.90;;;;;;4965696;28;19922;-82
2023/03/27 05:22:38;;;;;;;;;;;2.70;99.90;;;;;;4965316;28;20034;-82
2023/03/27 05:25:17;;;;;;;;;;;2.70;99.90;;;;;;4964051;28;19926;-82
2023/03/27 05:27:44;;;;;;;;;;;2.80;99.90;;;;;;4952629;28;19998;-84
2023/03/27 05:30:12;;;;;;;;;;;2.90;99.90;;;;;;4959019;29;19933;-83
2023/03/27 05:32:39;;;;;;;;;;;2.90;99.90;;;;;;4943516;29;19926;-81
2023/03/27 05:35:20;;;;;;;;;;;3.00;99.90;;;;;;4957004;28;20032;-80
2023/03/27 05:37:50;;;;;;;;;;;3.10;99.90;;;;;;4963592;28;19926;-78
2023/03/27 05:40:25;;;;;;;;;;;3.20;99.90;;;;;;4949623;28;20068;-80
2023/03/27 05:42:52;;;;;;;;;;;3.30;99.90;;;;;;4959780;28;19922;-80
2023/03/27 05:45:21;;;;;;;;;;;3.30;99.90;;;;;;4941807;29;19927;-80
2023/03/27 05:47:48;;;;;;;;;;;3.40;99.90;;;;;;4937626;29;20631;-78
2023/03/27 05:50:16;;;;;;;;;;;3.50;99.90;;;;;;4954501;28;19929;-78
2023/03/27 05:52:45;;;;;;;;;;;3.80;99.90;;;;;;4950483;28;19949;-78
2023/03/27 05:55:13;;;;;;;;;;;3.60;99.90;;;;;;4961777;29;19923;-77
2023/03/27 05:57:41;;;;;;;;;;;3.70;99.90;;;;;;4951703;28;19925;-78
2023/03/27 06:00:11;;;;;;;;;;;3.80;99.90;;;;;;4947787;28;19926;-76
2023/03/27 06:02:43;;;;;;;;;;;3.90;99.90;;;;;;4966740;28;19925;-78
2023/03/27 06:05:14;;;;;;;;;;;3.80;99.90;;;;;;4953573;28;19950;-79
2023/03/27 06:07:42;;;;;;;;;;;3.90;99.90;;;;;;4964937;29;19966;-80
2023/03/27 06:10:12;;;;;;;;;;;4.00;99.90;;;;;;4951462;29;19978;-76
2023/03/27 06:12:42;;;;;;;;;;;4.10;99.90;;;;;;4976478;28;19926;-77
2023/03/27 06:15:19;;;;;;;;;;;4.30;99.90;;;;;;4955977;29;20038;-76
2023/03/27 06:17:56;;;;;;;;;;;4.50;99.90;;;;;;4961652;28;20386;-79
2023/03/27 06:20:23;;;;;;;;;;;4.80;99.90;;;;;;4962555;28;19946;-79
2023/03/27 06:22:55;;;;;;;;;;;5.50;99.90;;;;;;4956492;28;19937;-79
2023/03/27 06:25:30;;;;;;;;;;;5.60;99.90;;;;;;4971124;28;19934;-81
2023/03/27 06:27:58;;;;;;;;;;;5.50;99.90;;;;;;4963006;28;19922;-80
2023/03/27 06:30:26;;;;;;;;;;;5.40;99.90;;;;;;4957544;28;19918;-80
2023/03/27 06:33:14;;;;;;;;;;;5.30;99.90;;;;;;4958121;28;19976;-82
2023/03/27 06:35:42;;;;;;;;;;;5.50;99.90;;;;;;4964338;28;19928;-81
2023/03/27 06:38:17;;;;;;;;;;;5.50;99.90;;;;;;4964965;28;19922;-79
2023/03/27 06:40:46;;;;;;;;;;;5.50;99.90;;;;;;4949635;29;19945;-80
2023/03/27 06:43:17;;;;;;;;;;;5.80;99.90;;;;;;4943278;29;19926;-78
2023/03/27 06:46:09;;;;;;;;;;;6.20;99.90;;;;;;4953806;28;19926;-77
2023/03/27 06:48:50;;;;;;;;;;;7.10;99.90;;;;;;4990119;28;20009;-78
2023/03/27 06:51:22;;;;;;;;;;;8.90;99.90;;;;;;4968787;28;19990;-78
2023/03/27 06:53:53;;;;;;;;;;;10.20;99.90;;;;;;4931999;29;20026;-78
2023/03/27 06:56:23;;;;;;;;;;;10.70;99.90;;;;;;4960043;28;20002;-76
2023/03/27 06:59:10;;;;;;;;;;;10.10;99.90;;;;;;4961479;29;19923;-77
2023/03/27 07:01:38;;;;;;;;;;;10.50;99.90;;;;;;4963960;29;19933;-77
2023/03/27 07:04:26;;;;;;;;;;;11.70;99.90;;;;;;4945307;29;19923;-79
2023/03/27 07:07:16;;;;;;;;;;;13.00;99.90;;;;;;4927693;29;19927;-77
2023/03/27 07:09:45;;;;;;;;;;;14.00;99.90;;;;;;4928674;29;19926;-78
2023/03/27 07:12:19;;;;;;;;;;;14.30;99.90;;;;;;4954710;29;19930;-79
2023/03/27 07:14:48;;;;;;;;;;;14.90;99.90;;;;;;4948496;28;19929;-80
2023/03/27 07:17:15;;;;;;;;;;;15.20;99.90;;;;;;4946819;29;20003;-79
2023/03/27 07:20:00;;;;;;;;;;;14.40;99.90;;;;;;4939031;29;19910;-78
2023/03/27 07:22:29;;;;;;;;;;;13.10;99.90;;;;;;4938066;29;19958;-78
2023/03/27 07:25:03;;;;;;;;;;;12.20;99.90;;;;;;4961495;29;20021;-77
2023/03/27 07:27:46;;;;;;;;;;;12.30;99.90;;;;;;4946991;28;19910;-77
2023/03/27 07:30:13;;;;;;;;;;;13.30;99.90;;;;;;4953073;28;19926;-78
2023/03/27 07:32:43;;;;;;;;;;;14.20;99.90;;;;;;4947018;28;19922;-76
2023/03/27 07:35:11;;;;;;;;;;;15.00;99.90;;;;;;4943327;29;19949;-77
2023/03/27 07:38:10;;;;;;;;;;;15.80;99.90;;;;;;4919427;29;19933;-78
2023/03/27 07:40:40;;;;;;;;;;;16.50;99.90;;;;;;4943834;29;20391;-78
2023/03/27 07:43:28;;;;;;;;;;;16.90;99.90;;;;;;4943311;29;19973;-78
2023/03/27 07:45:56;;;;;;;;;;;17.00;99.90;;;;;;4941153;29;19938;-78
2023/03/27 07:48:26;;;;;;;;;;;17.00;99.90;;;;;;4939359;29;20446;-77
2023/03/27 07:50:56;;;;;;;;;;;17.30;99.90;;;;;;4939978;29;19926;-78
2023/03/27 07:53:27;;;;;;;;;;;17.40;99.90;;;;;;4945292;28;19953;-78
2023/03/27 07:55:57;;;;;;;;;;;17.60;99.90;;;;;;4942917;29;19945;-77
2023/03/27 07:58:25;;;;;;;;;;;17.80;99.90;;;;;;4938458;29;19930;-77
2023/03/27 08:01:00;;;;;;;;;;;17.80;99.90;;;;;;4926234;29;20419;-77
2023/03/27 08:03:30;;;;;;;;;;;17.80;99.90;;;;;;4929405;29;19934;-79
2023/03/27 08:05:58;;;;;;;;;;;17.10;99.90;;;;;;4944921;29;19989;-78
2023/03/27 08:08:28;;;;;;;;;;;16.30;99.90;;;;;;4953851;28;20334;-77
2023/03/27 08:11:01;;;;;;;;;;;15.60;99.90;;;;;;4965270;28;20377;-78
2023/03/27 08:13:33;;;;;;;;;;;14.70;99.90;;;;;;4964155;28;19977;-79
2023/03/27 08:16:06;;;;;;;;;;;13.90;99.90;;;;;;4963316;28;19930;-78
2023/03/27 08:18:33;;;;;;;;;;;13.40;99.90;;;;;;4963706;28;19926;-78
2023/03/27 08:21:02;;;;;;;;;;;12.70;99.90;;;;;;4962354;28;19922;-80
2023/03/27 08:23:30;;;;;;;;;;;12.20;99.90;;;;;;4956081;29;19938;-77
2023/03/27 08:26:06;;;;;;;;;;;11.60;99.90;;;;;;4968228;28;20029;-77
2023/03/27 08:28:42;;;;;;;;;;;11.50;99.90;;;;;;4947530;28;20025;-78
2023/03/27 08:31:12;;;;;;;;;;;11.70;99.90;;;;;;4953031;29;19993;-78
2023/03/27 08:33:40;;;;;;;;;;;12.00;99.90;;;;;;4956425;29;19932;-78
2023/03/27 08:36:13;;;;;;;;;;;11.90;99.90;;;;;;4950165;29;19926;-77
2023/03/27 08:38:41;;;;;;;;;;;12.00;99.90;;;;;;4955313;29;19951;-78
2023/03/27 08:41:26;;;;;;;;;;;11.90;99.90;;;;;;4948963;28;19926;-80
2023/03/27 08:44:13;;;;;;;;;;;11.80;99.90;;;;;;4952955;29;19937;-79
2023/03/27 08:46:45;;;;;;;;;;;11.60;99.90;;;;;;4956834;28;19933;-79
2023/03/27 08:49:15;;;;;;;;;;;11.60;99.90;;;;;;4952431;28;20016;-79
2023/03/27 08:51:54;;;;;;;;;;;11.70;99.90;;;;;;4957044;29;19994;-79
2023/03/27 08:54:24;;;;;;;;;;;11.60;99.90;;;;;;4978203;28;19953;-79
2023/03/27 08:56:54;;;;;;;;;;;11.80;99.90;;;;;;4943453;29;19938;-81
2023/03/27 08:59:26;;;;;;;;;;;11.70;99.90;;;;;;4953397;28;19965;-81
2023/03/27 09:01:59;;;;;;;;;;;11.20;99.90;;;;;;4942718;28;19930;-77
2023/03/27 09:04:31;;;;;;;;;;;10.80;99.90;;;;;;4949222;28;19930;-77
2023/03/27 09:07:01;;;;;;;;;;;9.90;99.90;;;;;;4942277;28;19938;-77
2023/03/27 09:09:36;;;;;;;;;;;10.30;99.90;;;;;;4952201;28;19929;-79
2023/03/27 09:12:15;;;;;;;;;;;10.10;99.90;;;;;;4946014;28;19930;-79
2023/03/27 09:14:45;;;;;;;;;;;9.90;99.90;;;;;;4948700;29;19983;-80
2023/03/27 09:17:18;;;;;;;;;;;9.80;99.90;;;;;;4952753;28;19930;-80
2023/03/27 09:19:49;;;;;;;;;;;9.50;99.90;;;;;;4953997;28;19930;-79
2023/03/27 09:22:22;;;;;;;;;;;9.10;99.90;;;;;;4939086;28;19927;-80
2023/03/27 09:25:19;;;;;;;;;;;8.40;99.90;;;;;;4951630;28;19926;-80
2023/03/27 09:27:58;;;;;;;;;;;7.90;99.90;;;;;;4966991;28;20338;-78
2023/03/27 09:30:37;;;;;;;;;;;7.80;99.90;;;;;;4950501;28;19922;-77
2023/03/27 09:33:18;;;;;;;;;;;8.00;99.90;;;;;;4948351;29;19953;-77
2023/03/27 09:35:46;;;;;;;;;;;8.40;99.90;;;;;;4942485;29;20414;-78
2023/03/27 09:38:23;;;;;;;;;;;8.90;99.90;;;;;;4948285;28;19945;-80
2023/03/27 09:40:53;;;;;;;;;;;9.40;99.90;;;;;;4941742;29;19933;-80
2023/03/27 09:43:26;;;;;;;;;;;9.70;99.90;;;;;;4954151;28;20379;-80
2023/03/27 09:46:06;;;;;;;;;;;10.00;99.90;;;;;;4955523;29;19933;-83
2023/03/27 09:48:40;;;;;;;;;;;10.20;99.90;;;;;;4928226;29;19923;-85
2023/03/27 09:51:38;;;;;;;;;;;10.10;99.90;;;;;;4961755;29;20396;-82
2023/03/27 09:54:15;;;;;;;;;;;9.80;99.90;;;;;;4943765;29;19958;-83
2023/03/27 09:56:48;;;;;;;;;;;9.60;99.90;;;;;;4943743;29;20355;-85
2023/03/27 09:59:22;;;;;;;;;;;9.30;99.90;;;;;;4963363;28;20009;-82
2023/03/27 10:01:52;;;;;;;;;;;9.10;99.90;;;;;;4954879;28;20596;-82
2023/03/27 10:04:21;;;;;;;;;;;9.10;99.90;;;;;;4947265;29;19922;-82
2023/03/27 10:06:58;;;;;;;;;;;9.20;99.90;;;;;;4940695;28;19926;-83
2023/03/27 10:09:36;;;;;;;;;;;9.50;99.90;;;;;;4954181;28;19950;-82
2023/03/27 10:12:16;;;;;;;;;;;9.60;99.90;;;;;;4947127;28;20076;-82
2023/03/27 10:14:46;;;;;;;;;;;10.30;99.90;;;;;;4951749;28;19922;-83
2023/03/27 10:17:22;;;;;;;;;;;10.10;99.90;;;;;;4942353;29;19934;-83
2023/03/27 10:20:00;;;;;;;;;;;9.70;99.90;;;;;;4946619;28;20011;-84
2023/03/27 10:22:29;;;;;;;;;;;9.10;99.90;;;;;;4942757;28;19948;-83
2023/03/27 10:25:21;;;;;;;;;;;8.50;99.90;;;;;;4959363;28;20353;-84
2023/03/27 10:28:17;;;;;;;;;;;7.70;99.90;;;;;;4953198;28;20021;-83
2023/03/27 10:31:03;;;;;;;;;;;6.90;99.90;;;;;;4957838;28;19930;-82
2023/03/27 10:34:04;;;;;;;;;;;6.70;99.90;;;;;;4933647;29;19930;-83
2023/03/27 10:36:53;;;;;;;;;;;6.40;99.90;;;;;;4966833;28;19933;-83
2023/03/27 10:39:34;;;;;;;;;;;6.30;99.90;;;;;;4947532;28;19937;-82
2023/03/27 10:42:24;;;;;;;;;;;7.10;99.90;;;;;;4940367;28;20067;-82
2023/03/27 10:45:13;;;;;;;;;;;6.70;99.90;;;;;;4947144;29;19965;-82
2023/03/27 10:47:47;;;;;;;;;;;7.10;99.90;;;;;;4947407;29;19930;-82
2023/03/27 10:50:29;;;;;;;;;;;7.50;99.90;;;;;;4938339;28;19933;-83
2023/03/27 10:53:07;;;;;;;;;;;7.80;99.90;;;;;;4957759;28;19942;-83
2023/03/27 10:55:50;;;;;;;;;;;8.30;99.90;;;;;;4945491;28;19933;-83
2023/03/27 10:58:22;;;;;;;;;;;8.80;99.90;;;;;;4993955;23;19981;-76
2023/03/27 11:00:52;;;;;;;;;;;9.30;99.90;;;;;;4965597;28;19922;-75
2023/03/27 11:03:22;;;;;;;;;;;9.70;99.90;;;;;;4966900;28;19922;-75
2023/03/27 11:05:56;;;;;;;;;;;10.10;99.90;;;;;;4961509;28;19973;-76
2023/03/27 11:08:55;;;;;;;;;;;10.40;99.90;;;;;;4987955;23;22694;-84
2023/03/27 11:11:26;;;;;;;;;;;10.10;99.90;;;;;;4942431;28;19927;-82
2023/03/27 11:14:01;;;;;;;;;;;9.70;99.90;;;;;;4951665;29;19926;-82
2023/03/27 11:16:32;;;;;;;;;;;9.30;99.90;;;;;;4947525;29;19933;-81
2023/03/27 11:19:28;;;;;;;;;;;9.00;99.90;;;;;;4964416;29;19921;-82
2023/03/27 11:22:23;;;;;;;;;;;8.70;99.90;;;;;;4936781;29;20446;-82
2023/03/27 11:24:56;;;;;;;;;;;8.50;99.90;;;;;;4957470;29;19969;-82
2023/03/27 11:27:27;;;;;;;;;;;8.40;99.90;;;;;;4947674;29;19937;-82
2023/03/27 11:29:58;;;;;;;;;;;8.40;99.90;;;;;;4944400;29;19974;-82
2023/03/27 11:32:29;;;;;;;;;;;8.40;99.90;;;;;;4960279;28;19930;-82
2023/03/27 11:35:08;;;;;;;;;;;8.40;99.90;;;;;;4944784;29;20013;-82
2023/03/27 11:37:45;;;;;;;;;;;8.60;99.90;;;;;;4945758;29;19923;-79
2023/03/27 11:40:18;;;;;;;;;;;8.80;99.90;;;;;;4942551;29;19934;-78
2023/03/27 11:42:48;;;;;;;;;;;8.90;99.90;;;;;;4945566;29;19922;-78
2023/03/27 11:45:16;;;;;;;;;;;9.10;99.90;;;;;;4944949;29;19933;-77
2023/03/27 11:47:49;;;;;;;;;;;9.40;99.90;;;;;;4944768;29;19977;-79
2023/03/27 11:50:23;;;;;;;;;;;9.60;99.90;;;;;;4946573;29;19937;-79
2023/03/27 11:53:08;;;;;;;;;;;9.80;99.90;;;;;;4944335;29;19917;-78
2023/03/27 11:56:02;;;;;;;;;;;10.20;99.90;;;;;;4957042;29;20040;-79
2023/03/27 11:58:35;;;;;;;;;;;10.60;99.90;;;;;;4941905;29;19946;-80
2023/03/27 12:01:07;;;;;;;;;;;10.70;99.90;;;;;;4944978;28;19926;-77
2023/03/27 12:03:47;;;;;;;;;;;10.60;99.90;;;;;;4943568;29;19934;-77
2023/03/27 12:06:24;;;;;;;;;;;10.10;99.90;;;;;;4945084;28;19930;-78
2023/03/27 12:08:59;;;;;;;;;;;9.70;99.90;;;;;;4945050;29;19922;-78
2023/03/27 12:11:32;;;;;;;;;;;9.40;99.90;;;;;;4946220;29;19918;-79
2023/03/27 12:14:16;;;;;;;;;;;9.20;99.90;;;;;;4946663;29;19933;-78
2023/03/27 12:17:02;;;;;;;;;;;8.70;99.90;;;;;;4946252;28;19911;-79
2023/03/27 12:19:58;;;;;;;;;;;8.40;99.90;;;;;;4940389;29;19933;-78
2023/03/27 12:22:32;;;;;;;;;;;8.00;99.90;;;;;;4944533;29;19926;-77
2023/03/27 12:25:12;;;;;;;;;;;7.80;99.90;;;;;;4944517;29;20001;-77
2023/03/27 12:28:05;;;;;;;;;;;7.50;99.90;;;;;;4962707;28;19937;-77
2023/03/27 12:30:49;;;;;;;;;;;7.40;99.90;;;;;;4943374;29;20017;-77
2023/03/27 12:33:33;;;;;;;;;;;7.30;99.90;;;;;;4946421;29;19930;-78
2023/03/27 12:36:02;;;;;;;;;;;7.20;99.90;;;;;;4943244;29;19926;-76
2023/03/27 12:38:30;;;;;;;;;;;7.40;99.90;;;;;;4944969;29;19998;-78
2023/03/27 12:41:04;;;;;;;;;;;7.60;99.90;;;;;;4952137;29;19930;-77
2023/03/27 12:43:53;;;;;;;;;;;7.90;99.90;;;;;;4945164;29;19926;-78
2023/03/27 12:46:35;;;;;;;;;;;8.20;99.90;;;;;;4937242;28;19929;-76
2023/03/27 12:49:05;;;;;;;;;;;8.60;99.90;;;;;;4944608;29;19922;-79
2023/03/27 12:52:03;;;;;;;;;;;9.10;99.90;;;;;;4942493;29;20156;-78
2023/03/27 12:55:05;;;;;;;;;;;9.50;99.90;;;;;;4953028;29;19985;-77
2023/03/27 12:58:03;;;;;;;;;;;9.80;99.90;;;;;;4944639;29;20111;-76
2023/03/27 13:00:58;;;;;;;;;;;10.00;99.90;;;;;;4917802;29;19975;-78
2023/03/27 13:04:06;;;;;;;;;;;10.00;99.90;;;;;;4923823;29;19926;-77
2023/03/27 13:06:38;;;;;;;;;;;10.30;99.90;;;;;;4921391;29;19947;-79
2023/03/27 13:09:16;;;;;;;;;;;10.90;99.90;;;;;;4926026;29;20092;-77
2023/03/27 13:12:00;;;;;;;;;;;11.80;99.90;;;;;;4926169;29;19926;-78
2023/03/27 13:14:36;;;;;;;;;;;12.40;99.90;;;;;;4924685;29;20414;-78
2023/03/27 13:17:14;;;;;;;;;;;12.40;99.90;;;;;;4923650;29;19956;-79
2023/03/27 13:19:46;;;;;;;;;;;11.80;99.90;;;;;;4935976;29;19971;-78
2023/03/27 13:22:27;;;;;;;;;;;11.10;99.90;;;;;;4938201;29;19939;-78
2023/03/27 13:25:14;;;;;;;;;;;10.10;99.90;;;;;;4921796;29;19931;-78
2023/03/27 13:27:47;;;;;;;;;;;9.60;99.90;;;;;;4923223;29;19917;-78
2023/03/27 13:30:31;;;;;;;;;;;9.40;99.90;;;;;;4923280;29;20006;-78
2023/03/27 13:33:10;;;;;;;;;;;9.40;99.90;;;;;;4937947;28;20008;-79
2023/03/27 13:35:39;;;;;;;;;;;9.40;99.90;;;;;;4977890;28;19922;-78
2023/03/27 13:38:09;;;;;;;;;;;9.40;99.90;;;;;;4946616;28;19926;-79
2023/03/27 13:40:56;;;;;;;;;;;9.20;99.90;;;;;;4960880;29;19950;-78
2023/03/27 13:43:27;;;;;;;;;;;8.90;99.90;;;;;;4944715;29;19930;-79
2023/03/27 13:46:15;;;;;;;;;;;8.70;99.90;;;;;;4946205;28;20340;-78
2023/03/27 13:49:04;;;;;;;;;;;8.50;99.90;;;;;;4961713;29;19926;-79
2023/03/27 13:55:09;;;;;;;;;;;8.30;99.90;;;;;;4936562;29;19990;-77
2023/03/27 13:58:14;;;;;;;;;;;8.50;99.90;;;;;;4954073;28;20000;-78
2023/03/27 14:00:51;;;;;;;;;;;8.70;99.90;;;;;;4945788;28;19917;-79
2023/03/27 14:03:33;;;;;;;;;;;9.00;99.90;;;;;;4945024;29;19930;-80
2023/03/27 14:06:19;;;;;;;;;;;9.40;99.90;;;;;;4936684;28;19926;-78
2023/03/27 14:08:50;;;;;;;;;;;9.70;99.90;;;;;;4957972;28;19933;-80
2023/03/27 14:11:50;;;;;;;;;;;9.70;99.90;;;;;;4969559;28;19925;-79
2023/03/27 14:14:59;;;;;;;;;;;9.60;99.90;;;;;;4956869;29;19926;-77
2023/03/27 14:17:31;;;;;;;;;;;9.40;99.90;;;;;;5452517;23;20227;-78
2023/03/27 14:20:17;;;;;;;;;;;9.20;99.90;;;;;;4985341;28;20039;-78
2023/03/27 14:22:52;;;;;;;;;;;9.00;99.90;;;;;;4972942;28;19980;-78
2023/03/27 14:25:29;;;;;;;;;;;8.80;99.90;;;;;;4979787;28;19932;-80
2023/03/27 14:28:01;;;;;;;;;;;8.50;99.90;;;;;;4981101;28;19996;-80
2023/03/27 14:30:32;;;;;;;;;;;8.10;99.90;;;;;;4981607;28;20017;-78
2023/03/27 14:33:37;;;;;;;;;;;8.00;99.90;;;;;;4975402;28;19929;-79
2023/03/27 14:36:15;;;;;;;;;;;8.00;99.90;;;;;;4978584;28;19962;-79
2023/03/27 14:38:43;;;;;;;;;;;8.10;99.90;;;;;;4986926;28;19937;-79
2023/03/27 14:41:19;;;;;;;;;;;8.30;99.90;;;;;;4984862;28;19945;-78
2023/03/27 14:43:55;;;;;;;;;;;8.60;99.90;;;;;;4982425;28;19922;-80
2023/03/27 14:46:23;;;;;;;;;;;8.80;99.90;;;;;;4979503;28;20038;-80
2023/03/27 14:48:58;;;;;;;;;;;9.10;99.90;;;;;;4982650;28;19930;-79
2023/03/27 14:51:54;;;;;;;;;;;9.50;99.90;;;;;;4979899;28;20370;-80
2023/03/27 14:54:48;;;;;;;;;;;9.90;99.90;;;;;;4983085;28;19929;-79
2023/03/27 14:57:17;;;;;;;;;;;10.10;99.90;;;;;;4981547;28;20380;-81
2023/03/27 14:59:56;;;;;;;;;;;10.40;99.90;;;;;;4980715;28;19925;-80
2023/03/27 15:02:27;;;;;;;;;;;10.90;99.90;;;;;;4982248;28;20012;-80
2023/03/27 15:05:01;;;;;;;;;;;11.30;99.90;;;;;;4982582;28;19950;-81
2023/03/27 15:07:33;;;;;;;;;;;11.30;99.90;;;;;;4981235;28;20357;-81
2023/03/27 15:10:23;;;;;;;;;;;11.10;99.90;;;;;;4983843;28;19988;-80
2023/03/27 15:13:11;;;;;;;;;;;10.90;99.90;;;;;;4982949;28;19922;-80
2023/03/27 15:15:49;;;;;;;;;;;10.80;99.90;;;;;;4982872;28;19926;-78
2023/03/27 15:18:21;;;;;;;;;;;10.50;99.90;;;;;;4986079;28;19929;-77